aviador You're here:

UKDE Decoded Metar

MOKRAYA in UKRAINE
Report Time2017-11-21 00:00:00
UTC Time2017-11-21 00:28:30
Flight Rules mvfr MVFR
Wind330° at 12 kt
W.Decomp.*RWY 02: 7.1 kt HW 9.7 kt LCW
W.Rank330° ranks 1
Current wind is above 330° avg. (7.7)
Visibility9999 m
Phenomena:N/A
Clouds:Broken 010 Hf
Expected CloudBase > 400 ft AGL from Temp-Dew spread
Ceiling1,000 ft
Temp02°C (ISA -12)
Dew Point01°C (93% RH)
AAT-4.2°C
QNH1005 hPa
Density Alt-755 ft
Elevation371 ft
Report Wrong Elevation
Raw Report
UKDE 210000Z 33006MPS 290V360 9999 BKN010 02/01 Q1005 R02/290354
NOSIG=

Extra information for UKDE:More info

Metar Taf Metar & Taf Last 4 Metars F.Rules Stats Wind Profile Meteogram Temp Stats Airport Information Weather charts Add Link Nearby VenuesMetar ALERT Operation Metar Decoded Social comments